Terminal Aerodrome Forecast
Issued by NWS

Home | Current Version | Previous Version | Text Only | Print | Product List | Glossary On
Versions: 1 2 3 4 5 6 7 8 9 10 11 12
000
FTUS44 KBMX 220520
TAFEET
TAF
KEET 220520Z 2206/2306 12006KT P6SM BKN070
     FM220700 12007KT P6SM OVC025
     FM220800 12008KT P6SM OVC012
     FM221300 12010KT P6SM VCSH OVC012
     FM221700 14012G21KT 5SM SHRA OVC010 PROB30 2218/2224 2SM TSRA
      BKN007 OVC012CB=

USA.gov is the U.S. government's official web portal to all federal, state and local government web resources and services.